Terminal Aerodrome Forecast
Issued by NWS

Home | Current Version | Previous Version | Text Only | Print | Product List | Glossary On
Versions: 1 2 3 4 5 6 7 8 9 10 11 12 13 14 15 16
000
FTUS45 KGJT 301122
TAFMTJ
TAF
KMTJ 301122Z 3012/0112 18004KT P6SM FEW028 OVC040
     FM301600 VRB03KT P6SM BKN060
     FM302100 31008KT P6SM OVC060
     FM010600 09007KT P6SM BKN200
     FM010800 09007KT P6SM VCSH BKN250=

USA.gov is the U.S. government's official web portal to all federal, state and local government web resources and services.